Time;durP1;ratioP1;P1;durP2;ratioP2;P2;SDS_P1;SDS_P2;PMS_P1;PMS_P2;Temp;Humidity;BMP_temperature;BMP_pressure;BME280_temperature;BME280_humidity;BME280_pressure;Samples;Min_cycle;Max_cycle;Signal;HPM_P1;HPM_P2
2021/04/18 00:00:34;;;;;;;5.00;2.83;;;6.20;99.90;;;;;;5039284;28;20175;-66
2021/04/18 00:03:00;;;;;;;6.83;3.20;;;6.20;99.90;;;;;;5047677;28;20208;-66
2021/04/18 00:05:27;;;;;;;6.27;3.17;;;6.20;99.90;;;;;;5052873;28;20182;-65
2021/04/18 00:08:01;;;;;;;5.23;3.80;;;6.10;99.90;;;;;;5051368;28;20550;-66
2021/04/18 00:10:32;;;;;;;5.23;3.50;;;6.10;99.90;;;;;;5041018;28;20571;-66
2021/04/18 00:12:58;;;;;;;6.97;3.63;;;6.10;99.90;;;;;;5032972;28;20199;-64
2021/04/18 00:15:25;;;;;;;6.80;3.47;;;6.10;99.90;;;;;;5043099;28;20211;-65
2021/04/18 00:17:51;;;;;;;11.50;4.00;;;6.00;99.90;;;;;;5046245;28;20276;-64
2021/04/18 00:20:18;;;;;;;5.13;3.47;;;6.10;99.90;;;;;;5052385;28;20623;-65
2021/04/18 00:22:44;;;;;;;4.90;3.43;;;6.10;99.90;;;;;;5046738;28;20734;-66
2021/04/18 00:25:11;;;;;;;5.37;4.40;;;6.20;99.90;;;;;;5032828;28;20226;-65
2021/04/18 00:27:37;;;;;;;6.83;4.10;;;6.10;99.90;;;;;;5036591;28;20167;-65
2021/04/18 00:30:09;;;;;;;9.60;4.17;;;6.10;99.90;;;;;;5037457;28;20195;-66
2021/04/18 00:32:35;;;;;;;6.53;4.13;;;6.10;99.90;;;;;;5035254;28;20182;-65
2021/04/18 00:35:00;;;;;;;4.77;3.73;;;6.10;99.90;;;;;;5044552;28;20716;-65
2021/04/18 00:37:26;;;;;;;7.03;3.67;;;6.10;99.90;;;;;;5033359;28;20172;-63
2021/04/18 00:39:52;;;;;;;5.70;3.47;;;6.10;99.90;;;;;;5050393;28;20202;-65
2021/04/18 00:42:17;;;;;;;6.50;4.27;;;6.20;99.90;;;;;;5033572;28;20179;-65
2021/04/18 00:44:43;;;;;;;8.13;4.00;;;6.20;99.90;;;;;;5031916;28;20172;-65
2021/04/18 00:47:09;;;;;;;9.20;5.30;;;6.20;99.90;;;;;;5037884;28;20497;-65
2021/04/18 00:49:34;;;;;;;10.20;5.10;;;6.10;99.90;;;;;;5052213;28;20194;-65
2021/04/18 00:52:00;;;;;;;7.93;5.07;;;6.10;99.90;;;;;;5041364;28;20217;-66
2021/04/18 00:54:26;;;;;;;10.93;5.60;;;6.10;99.90;;;;;;5052236;28;20193;-64
2021/04/18 00:56:51;;;;;;;8.67;5.80;;;6.10;99.90;;;;;;5038696;28;20252;-66
2021/04/18 00:59:17;;;;;;;8.87;5.50;;;6.10;99.90;;;;;;5033433;28;20239;-66
2021/04/18 01:01:43;;;;;;;11.67;6.50;;;6.00;99.90;;;;;;5051874;28;20194;-66
2021/04/18 01:04:08;;;;;;;7.83;5.60;;;6.10;99.90;;;;;;5036532;28;20550;-65
2021/04/18 01:06:34;;;;;;;11.17;5.90;;;6.00;99.90;;;;;;5051813;28;20225;-64
2021/04/18 01:09:00;;;;;;;11.00;6.20;;;6.10;99.90;;;;;;5046567;28;20207;-65
2021/04/18 01:11:26;;;;;;;11.10;7.30;;;6.00;99.90;;;;;;5041706;28;20613;-65
2021/04/18 01:13:51;;;;;;;16.80;7.80;;;6.00;99.90;;;;;;5031964;28;20211;-65
2021/04/18 01:16:17;;;;;;;12.23;7.43;;;6.00;99.90;;;;;;5049148;28;20181;-65
2021/04/18 01:18:43;;;;;;;13.17;8.07;;;5.90;99.90;;;;;;5043564;28;20635;-64
2021/04/18 01:21:10;;;;;;;11.73;8.27;;;6.00;99.90;;;;;;5031555;28;20246;-66
2021/04/18 01:23:36;;;;;;;15.50;9.13;;;6.00;99.90;;;;;;5037555;28;20183;-65
2021/04/18 01:26:02;;;;;;;12.63;9.53;;;6.10;99.90;;;;;;5051760;28;20739;-65
2021/04/18 01:28:28;;;;;;;16.87;10.03;;;6.10;99.90;;;;;;5049899;28;20213;-65
2021/04/18 01:30:54;;;;;;;16.00;10.17;;;6.20;99.90;;;;;;5040013;28;20183;-64
2021/04/18 01:33:20;;;;;;;16.27;11.67;;;6.20;99.90;;;;;;5048968;28;20187;-65
2021/04/18 01:35:47;;;;;;;18.20;10.97;;;6.20;99.90;;;;;;5031728;28;20595;-65
2021/04/18 01:38:15;;;;;;;17.07;11.37;;;6.30;99.90;;;;;;5031920;28;20264;-65
2021/04/18 01:40:42;;;;;;;20.63;12.27;;;6.40;99.90;;;;;;5039563;28;20179;-65
2021/04/18 01:43:10;;;;;;;20.07;12.03;;;6.40;99.90;;;;;;5051504;28;20259;-66
2021/04/18 01:45:36;;;;;;;16.67;11.53;;;6.50;99.90;;;;;;5035927;28;20175;-66
2021/04/18 01:48:02;;;;;;;17.63;10.17;;;6.50;99.90;;;;;;5049754;28;20190;-64
2021/04/18 01:50:31;;;;;;;11.27;8.33;;;6.60;99.90;;;;;;5033036;28;20175;-66
2021/04/18 01:52:57;;;;;;;11.83;7.50;;;6.60;99.90;;;;;;5032852;28;20188;-65
2021/04/18 01:55:22;;;;;;;11.40;7.33;;;6.60;99.90;;;;;;5040349;28;20723;-66
2021/04/18 01:57:48;;;;;;;7.47;6.23;;;6.50;99.90;;;;;;5036372;28;20233;-65
2021/04/18 02:00:14;;;;;;;11.80;6.93;;;6.50;99.90;;;;;;5039594;28;20199;-66
2021/04/18 02:02:41;;;;;;;12.87;7.07;;;6.50;99.90;;;;;;5035338;28;20642;-66
2021/04/18 02:05:07;;;;;;;10.40;7.03;;;6.50;99.90;;;;;;5048072;28;20546;-64
2021/04/18 02:07:33;;;;;;;10.80;6.27;;;6.50;99.90;;;;;;5054328;28;20182;-65
2021/04/18 02:09:59;;;;;;;8.57;5.83;;;6.50;99.90;;;;;;5043549;28;20203;-64
2021/04/18 02:12:24;;;;;;;11.33;6.33;;;6.50;99.90;;;;;;5049014;28;20217;-66
2021/04/18 02:14:50;;;;;;;10.47;5.93;;;6.50;99.90;;;;;;5051200;28;20206;-66
2021/04/18 02:17:15;;;;;;;8.17;5.37;;;6.50;99.90;;;;;;5055177;28;20175;-65
2021/04/18 02:19:41;;;;;;;9.17;5.73;;;6.50;99.90;;;;;;5043738;28;20215;-64
2021/04/18 02:22:07;;;;;;;11.30;5.47;;;6.50;99.90;;;;;;5034929;28;20171;-64
2021/04/18 02:24:32;;;;;;;9.87;5.67;;;6.50;99.90;;;;;;5052592;28;20187;-65
2021/04/18 02:26:58;;;;;;;8.37;5.00;;;6.50;99.90;;;;;;5052040;28;20548;-66
2021/04/18 02:29:24;;;;;;;10.47;5.60;;;6.40;99.90;;;;;;5048916;28;20254;-65
2021/04/18 02:31:49;;;;;;;9.67;5.07;;;6.40;99.90;;;;;;5038260;28;20727;-65
2021/04/18 02:34:15;;;;;;;11.53;5.80;;;6.40;99.90;;;;;;5054806;28;20183;-65
2021/04/18 02:36:41;;;;;;;9.53;4.73;;;6.40;99.90;;;;;;5034742;28;20803;-66
2021/04/18 02:39:07;;;;;;;8.50;5.07;;;6.40;99.90;;;;;;5034836;28;20211;-66
2021/04/18 02:41:33;;;;;;;9.07;5.83;;;6.40;99.90;;;;;;5046613;28;20237;-66
2021/04/18 02:43:59;;;;;;;8.57;5.67;;;6.40;99.90;;;;;;5034788;28;20175;-66
2021/04/18 02:46:24;;;;;;;9.80;5.00;;;6.40;99.90;;;;;;5053140;28;20209;-66
2021/04/18 02:48:50;;;;;;;12.07;6.13;;;6.30;99.90;;;;;;5044542;28;20207;-66
2021/04/18 02:51:15;;;;;;;8.53;5.03;;;6.30;99.90;;;;;;5042894;28;20179;-65
2021/04/18 02:53:41;;;;;;;10.97;5.10;;;6.30;99.90;;;;;;5034555;28;20184;-66
2021/04/18 02:56:07;;;;;;;11.27;5.07;;;6.20;99.90;;;;;;5039348;28;20331;-66
2021/04/18 02:58:33;;;;;;;8.20;5.00;;;6.20;99.90;;;;;;5048233;28;20210;-66
2021/04/18 03:00:58;;;;;;;16.00;5.17;;;6.20;99.90;;;;;;5037862;28;20653;-66
2021/04/18 03:03:24;;;;;;;8.20;4.47;;;6.10;99.90;;;;;;5046417;28;20194;-65
2021/04/18 03:05:49;;;;;;;11.53;4.83;;;6.20;99.90;;;;;;5053629;28;20633;-66
2021/04/18 03:08:15;;;;;;;7.53;4.87;;;6.20;99.90;;;;;;5043297;28;20259;-66
2021/04/18 03:10:41;;;;;;;5.67;4.53;;;6.20;99.90;;;;;;5043175;28;20649;-66
2021/04/18 03:13:06;;;;;;;7.73;4.63;;;6.10;99.90;;;;;;5034158;28;20186;-65
2021/04/18 03:15:32;;;;;;;5.63;3.87;;;6.10;99.90;;;;;;5049517;28;20179;-65
2021/04/18 03:17:59;;;;;;;7.50;4.67;;;6.00;99.90;;;;;;5034893;28;20630;-65
2021/04/18 03:20:25;;;;;;;6.63;5.03;;;6.00;99.90;;;;;;5040803;22;20224;-68
2021/04/18 03:22:51;;;;;;;7.43;4.70;;;6.00;99.90;;;;;;5022336;28;20176;-70
2021/04/18 03:25:17;;;;;;;8.97;4.37;;;6.00;99.90;;;;;;5021771;28;20179;-67
2021/04/18 03:27:43;;;;;;;7.20;4.53;;;6.00;99.90;;;;;;5004617;28;20291;-68
2021/04/18 03:30:09;;;;;;;9.90;4.37;;;6.00;99.90;;;;;;5020674;28;20224;-68
2021/04/18 03:32:35;;;;;;;8.23;5.07;;;5.90;99.90;;;;;;5018119;28;20172;-68
2021/04/18 03:35:03;;;;;;;6.90;5.40;;;5.90;99.90;;;;;;5017104;28;20664;-68
2021/04/18 03:37:29;;;;;;;10.03;4.53;;;5.90;99.90;;;;;;5017874;28;20172;-68
2021/04/18 03:39:55;;;;;;;10.47;5.17;;;5.90;99.90;;;;;;5017605;28;20223;-67
2021/04/18 03:42:20;;;;;;;9.47;5.27;;;5.90;99.90;;;;;;5018536;28;20227;-69
2021/04/18 03:44:46;;;;;;;7.97;4.87;;;5.90;99.90;;;;;;5018158;28;20183;-67
2021/04/18 03:47:12;;;;;;;9.70;4.77;;;6.00;99.90;;;;;;5018527;28;20173;-66
2021/04/18 03:49:37;;;;;;;5.00;4.27;;;6.10;99.90;;;;;;5017463;28;20210;-71
2021/04/18 03:52:03;;;;;;;10.33;5.33;;;6.10;99.90;;;;;;5017905;28;20183;-65
2021/04/18 03:54:29;;;;;;;10.93;4.90;;;6.00;99.90;;;;;;5018240;28;20817;-67
2021/04/18 03:56:55;;;;;;;8.90;5.43;;;5.90;99.90;;;;;;4997096;28;20222;-63
2021/04/18 03:59:20;;;;;;;9.90;5.00;;;5.90;99.90;;;;;;5013256;28;20211;-63
2021/04/18 04:01:46;;;;;;;8.27;4.53;;;5.90;99.90;;;;;;5012787;28;20626;-64
2021/04/18 04:04:11;;;;;;;4.83;4.13;;;5.80;99.90;;;;;;5012690;28;20188;-64
2021/04/18 04:06:37;;;;;;;10.40;4.83;;;5.70;99.90;;;;;;5012640;28;20180;-64
2021/04/18 04:09:06;;;;;;;7.37;4.90;;;5.60;99.90;;;;;;5012909;28;20258;-62
2021/04/18 04:11:31;;;;;;;7.73;4.23;;;5.60;99.90;;;;;;5012823;28;20863;-63
2021/04/18 04:13:57;;;;;;;7.33;4.97;;;5.50;99.90;;;;;;5013000;28;20179;-63
2021/04/18 04:16:23;;;;;;;7.40;4.90;;;5.50;99.90;;;;;;5013213;28;20172;-64
2021/04/18 04:18:49;;;;;;;6.90;4.40;;;5.50;99.90;;;;;;5011895;28;20701;-64
2021/04/18 04:21:15;;;;;;;7.63;4.30;;;5.40;99.90;;;;;;5012829;28;20246;-64
2021/04/18 04:23:41;;;;;;;7.03;4.70;;;5.40;99.90;;;;;;4995272;28;20192;-63
2021/04/18 04:26:07;;;;;;;7.97;4.67;;;5.40;99.90;;;;;;5012873;28;20184;-63
2021/04/18 04:28:33;;;;;;;8.17;5.47;;;5.40;99.90;;;;;;5012938;28;20184;-64
2021/04/18 04:30:58;;;;;;;9.67;5.27;;;5.40;99.90;;;;;;5011594;28;20266;-64
2021/04/18 04:33:24;;;;;;;8.40;5.30;;;5.40;99.90;;;;;;5013019;28;20180;-64
2021/04/18 04:35:50;;;;;;;10.97;5.37;;;5.40;99.90;;;;;;5012578;28;20600;-61
2021/04/18 04:38:15;;;;;;;5.53;3.87;;;5.50;99.90;;;;;;5012731;28;20762;-63
2021/04/18 04:40:41;;;;;;;9.13;4.77;;;5.50;99.90;;;;;;5011984;28;20209;-64
2021/04/18 04:43:07;;;;;;;8.57;5.43;;;5.40;99.90;;;;;;5012129;28;20198;-63
2021/04/18 04:45:32;;;;;;;8.20;4.80;;;5.40;99.90;;;;;;5012728;28;20306;-63
2021/04/18 04:47:58;;;;;;;8.57;5.20;;;5.40;99.90;;;;;;5012204;28;20188;-63
2021/04/18 04:50:24;;;;;;;8.37;4.77;;;5.40;99.90;;;;;;5012257;28;20204;-63
2021/04/18 04:52:49;;;;;;;7.83;5.10;;;5.40;99.90;;;;;;5012219;28;20192;-64
2021/04/18 04:55:15;;;;;;;6.63;4.80;;;5.40;99.90;;;;;;5012142;28;20188;-64
2021/04/18 04:57:41;;;;;;;6.30;4.70;;;5.40;99.90;;;;;;5011998;28;20772;-63
2021/04/18 05:00:08;;;;;;;6.67;5.20;;;5.40;99.90;;;;;;5011809;28;20206;-64
2021/04/18 05:02:34;;;;;;;8.33;5.10;;;5.40;99.90;;;;;;5012348;28;20176;-63
2021/04/18 05:04:59;;;;;;;7.10;4.70;;;5.50;99.90;;;;;;5011873;28;20180;-63
2021/04/18 05:07:25;;;;;;;11.10;6.23;;;5.50;99.90;;;;;;5011588;28;20255;-63
2021/04/18 05:09:51;;;;;;;10.13;5.50;;;5.40;99.90;;;;;;5011470;28;20286;-62
2021/04/18 05:12:16;;;;;;;10.67;4.93;;;5.40;99.90;;;;;;5012331;28;20172;-63
2021/04/18 05:14:42;;;;;;;7.60;5.27;;;5.40;99.90;;;;;;5011996;28;20266;-63
2021/04/18 05:17:08;;;;;;;7.50;5.10;;;5.40;99.90;;;;;;5011819;28;20219;-63
2021/04/18 05:19:34;;;;;;;7.77;5.70;;;5.40;99.90;;;;;;5011939;28;20220;-63
2021/04/18 05:21:59;;;;;;;9.27;6.13;;;5.40;99.90;;;;;;5011645;28;20188;-63
2021/04/18 05:24:25;;;;;;;7.53;5.70;;;5.50;99.90;;;;;;5011980;28;20211;-63
2021/04/18 05:26:51;;;;;;;11.47;5.43;;;5.50;99.90;;;;;;5011770;28;20653;-64
2021/04/18 05:29:18;;;;;;;12.27;6.40;;;5.50;99.90;;;;;;5011639;28;20262;-64
2021/04/18 05:31:44;;;;;;;9.50;6.83;;;5.50;99.90;;;;;;5011700;28;20653;-63
2021/04/18 05:34:09;;;;;;;14.37;6.13;;;5.60;99.90;;;;;;5011787;28;20180;-63
2021/04/18 05:36:35;;;;;;;14.00;6.73;;;5.60;99.90;;;;;;5012042;28;20176;-63
2021/04/18 05:39:01;;;;;;;13.83;6.93;;;5.60;99.90;;;;;;5011253;28;20220;-64
2021/04/18 05:41:26;;;;;;;14.27;6.53;;;5.60;99.90;;;;;;5011408;28;20263;-63
2021/04/18 05:43:52;;;;;;;8.03;5.70;;;5.60;99.90;;;;;;5011369;28;20187;-63
2021/04/18 05:46:18;;;;;;;9.93;5.93;;;5.70;99.90;;;;;;5011922;28;20172;-63
2021/04/18 05:48:43;;;;;;;9.33;6.47;;;5.70;99.90;;;;;;5010155;28;20191;-63
2021/04/18 05:51:09;;;;;;;11.20;6.27;;;5.70;99.90;;;;;;5010958;28;20207;-63
2021/04/18 05:53:35;;;;;;;14.63;6.40;;;5.80;99.90;;;;;;5011731;28;20188;-64
2021/04/18 05:56:00;;;;;;;14.43;6.37;;;5.90;99.90;;;;;;5011738;28;20646;-63
2021/04/18 05:58:26;;;;;;;8.80;6.47;;;6.00;99.90;;;;;;5011230;28;20215;-61
2021/04/18 06:00:51;;;;;;;8.30;4.97;;;6.10;99.90;;;;;;5010779;28;20657;-62
2021/04/18 06:03:17;;;;;;;10.17;6.83;;;6.00;99.90;;;;;;5011803;28;20168;-64
2021/04/18 06:05:43;;;;;;;13.90;6.60;;;6.00;99.90;;;;;;5011427;28;20604;-64
2021/04/18 06:08:09;;;;;;;10.10;6.30;;;6.10;99.90;;;;;;5011262;28;20727;-63
2021/04/18 06:10:34;;;;;;;9.17;6.07;;;6.20;99.90;;;;;;5010779;28;20204;-63
2021/04/18 06:13:00;;;;;;;13.10;6.80;;;6.30;99.90;;;;;;5011122;28;20196;-64
2021/04/18 06:15:27;;;;;;;7.67;5.90;;;6.30;99.90;;;;;;5011259;28;20184;-63
2021/04/18 06:17:53;;;;;;;9.50;6.37;;;6.40;99.90;;;;;;5011248;28;20195;-62
2021/04/18 06:20:19;;;;;;;10.10;6.77;;;6.40;99.90;;;;;;5011151;28;20208;-63
2021/04/18 06:22:44;;;;;;;10.97;7.07;;;6.40;99.90;;;;;;5011358;28;20646;-63
2021/04/18 06:25:11;;;;;;;10.93;6.37;;;6.50;99.90;;;;;;5010849;28;20184;-64
2021/04/18 06:27:36;;;;;;;15.47;7.53;;;6.60;99.90;;;;;;5011345;28;20267;-64
2021/04/18 06:30:02;;;;;;;13.00;8.07;;;6.80;99.90;;;;;;5010622;28;20697;-63
2021/04/18 06:32:28;;;;;;;13.43;7.07;;;7.00;99.90;;;;;;5011426;28;20544;-64
2021/04/18 06:34:54;;;;;;;13.77;6.40;;;7.10;99.90;;;;;;5010926;28;20192;-64
2021/04/18 06:37:19;;;;;;;11.10;6.43;;;7.20;99.90;;;;;;5011290;28;20199;-63
2021/04/18 06:39:45;;;;;;;13.20;7.80;;;7.50;99.90;;;;;;5010252;28;20286;-64
2021/04/18 06:42:14;;;;;;;9.27;6.20;;;7.90;99.90;;;;;;5011889;28;20626;-64
2021/04/18 06:44:40;;;;;;;13.47;6.93;;;8.40;99.90;;;;;;5014025;28;20181;-64
2021/04/18 06:47:06;;;;;;;12.47;6.93;;;8.70;99.90;;;;;;5013450;28;20191;-64
2021/04/18 06:49:32;;;;;;;13.10;7.67;;;8.70;99.90;;;;;;5014009;28;20199;-64
2021/04/18 06:51:58;;;;;;;11.13;7.20;;;8.50;99.90;;;;;;5013827;28;20187;-64
2021/04/18 06:54:24;;;;;;;18.13;8.47;;;8.40;99.90;;;;;;5014437;28;20207;-62
2021/04/18 06:56:50;;;;;;;12.43;7.60;;;8.30;99.90;;;;;;5014554;28;20184;-64
2021/04/18 06:59:16;;;;;;;20.23;8.50;;;8.20;99.90;;;;;;5014020;28;20684;-64
2021/04/18 07:01:42;;;;;;;13.50;8.20;;;8.10;99.90;;;;;;5013832;28;20582;-63
2021/04/18 07:04:16;;;;;;;14.90;7.93;;;8.20;99.90;;;;;;5014195;28;20280;-64
2021/04/18 07:06:52;;;;;;;14.50;8.50;;;8.30;99.90;;;;;;5014409;28;20569;-63
2021/04/18 07:09:20;;;;;;;16.23;7.23;;;8.60;99.90;;;;;;5014086;28;20349;-63
2021/04/18 07:12:01;;;;;;;17.73;7.47;;;9.20;99.90;;;;;;5013867;28;20199;-63
2021/04/18 07:14:36;;;;;;;13.00;7.13;;;9.60;99.90;;;;;;5014307;28;20172;-64
2021/04/18 07:17:07;;;;;;;14.57;7.57;;;9.90;99.90;;;;;;5013917;28;20207;-63
2021/04/18 07:19:34;;;;;;;12.60;7.03;;;10.00;99.90;;;;;;5013992;28;20212;-64
2021/04/18 07:22:01;;;;;;;14.23;7.20;;;9.90;99.90;;;;;;5013715;28;20184;-64
2021/04/18 07:24:27;;;;;;;13.33;7.93;;;9.80;99.90;;;;;;5014199;28;20176;-63
2021/04/18 07:27:05;;;;;;;13.07;7.97;;;9.60;99.90;;;;;;5013674;28;20726;-64
2021/04/18 07:29:32;;;;;;;15.83;7.80;;;9.50;99.90;;;;;;5013997;28;20196;-64
2021/04/18 07:31:59;;;;;;;13.33;7.23;;;9.40;99.90;;;;;;5013420;28;20184;-64
2021/04/18 07:34:34;;;;;;;14.50;7.93;;;9.40;99.90;;;;;;5014063;28;20234;-63
2021/04/18 07:37:07;;;;;;;10.27;7.17;;;9.50;99.90;;;;;;5013423;28;20183;-63
2021/04/18 07:39:47;;;;;;;10.37;6.93;;;9.40;99.90;;;;;;5013654;28;20606;-64
2021/04/18 07:42:35;;;;;;;13.60;6.90;;;9.40;99.90;;;;;;5013371;28;20242;-63
2021/04/18 07:45:04;;;;;;;14.40;7.03;;;9.40;99.90;;;;;;5013439;28;20215;-62
2021/04/18 07:47:32;;;;;;;13.27;7.30;;;9.70;99.90;;;;;;5013448;28;20214;-63
2021/04/18 07:49:59;;;;;;;14.93;6.83;;;10.10;99.90;;;;;;5013272;28;20677;-65
2021/04/18 07:52:27;;;;;;;9.13;6.37;;;10.70;99.90;;;;;;5013355;28;20184;-64
2021/04/18 07:54:53;;;;;;;9.50;6.80;;;11.50;99.90;;;;;;5012470;28;20545;-65
2021/04/18 07:57:20;;;;;;;10.97;6.10;;;12.10;99.90;;;;;;5013346;28;20187;-62
2021/04/18 07:59:46;;;;;;;10.93;6.50;;;12.70;99.90;;;;;;5012844;28;20219;-64
2021/04/18 08:02:20;;;;;;;12.33;7.67;;;13.20;99.90;;;;;;5013299;28;20634;-65
2021/04/18 08:04:50;;;;;;;12.50;6.40;;;13.90;99.90;;;;;;5012983;28;20180;-64
2021/04/18 08:07:15;;;;;;;11.17;7.50;;;14.40;99.90;;;;;;5013110;28;20177;-64
2021/04/18 08:09:41;;;;;;;10.70;6.20;;;14.90;99.90;;;;;;5012914;28;20207;-64
2021/04/18 08:12:10;;;;;;;15.87;7.60;;;15.30;99.90;;;;;;5013267;28;20188;-65
2021/04/18 08:14:38;;;;;;;11.80;7.50;;;15.70;99.90;;;;;;5012973;28;20192;-64
2021/04/18 08:17:04;;;;;;;10.10;6.87;;;15.70;99.90;;;;;;5012640;28;20188;-64
2021/04/18 08:19:31;;;;;;;12.00;7.37;;;16.00;99.90;;;;;;5012508;28;20281;-64
2021/04/18 08:21:56;;;;;;;9.20;5.93;;;16.40;99.90;;;;;;5012796;28;20179;-64
2021/04/18 08:24:22;;;;;;;10.37;7.07;;;16.60;99.90;;;;;;5012913;28;20176;-64
2021/04/18 08:27:11;;;;;;;9.27;7.17;;;16.70;99.90;;;;;;5013089;28;20262;-64
2021/04/18 08:30:05;;;;;;;9.67;6.83;;;16.30;99.90;;;;;;5012829;28;20291;-65
2021/04/18 08:32:51;;;;;;;12.67;8.17;;;15.70;99.90;;;;;;5013071;28;20707;-65
2021/04/18 08:35:20;;;;;;;10.80;6.87;;;15.60;99.90;;;;;;5012398;28;20191;-65
2021/04/18 08:38:04;;;;;;;12.70;7.33;;;15.70;99.90;;;;;;5012748;28;20260;-64
2021/04/18 08:40:31;;;;;;;14.00;8.30;;;15.40;99.90;;;;;;5012215;28;20203;-65
2021/04/18 08:43:20;;;;;;;14.43;9.53;;;15.40;99.90;;;;;;5012569;28;20179;-65
2021/04/18 08:45:50;;;;;;;17.83;8.27;;;15.30;99.90;;;;;;5012318;28;20180;-64
2021/04/18 08:48:16;;;;;;;13.57;8.87;;;15.00;99.90;;;;;;5012559;28;20187;-64
2021/04/18 08:50:55;;;;;;;14.03;8.10;;;14.60;99.90;;;;;;5012005;28;20685;-64
2021/04/18 08:53:21;;;;;;;11.87;7.00;;;14.30;99.90;;;;;;5012323;28;20188;-64
2021/04/18 08:56:01;;;;;;;14.13;9.33;;;14.10;99.90;;;;;;5012276;28;20561;-64
2021/04/18 08:58:32;;;;;;;16.03;8.53;;;13.60;99.90;;;;;;5012331;28;20290;-63
2021/04/18 09:01:09;;;;;;;18.17;8.27;;;13.20;99.90;;;;;;5011962;28;20211;-63
2021/04/18 09:03:37;;;;;;;15.67;8.90;;;13.20;99.90;;;;;;5012264;28;20180;-64
2021/04/18 09:06:20;;;;;;;11.43;7.10;;;13.20;99.90;;;;;;5011987;28;20224;-63
2021/04/18 09:08:51;;;;;;;13.33;7.73;;;13.20;99.90;;;;;;4994335;28;20219;-63
2021/04/18 09:11:16;;;;;;;14.67;8.40;;;13.10;99.90;;;;;;5011474;28;20222;-64
2021/04/18 09:13:57;;;;;;;14.90;8.17;;;13.10;99.90;;;;;;5012137;28;20645;-64
2021/04/18 09:16:27;;;;;;;13.13;8.33;;;13.20;99.90;;;;;;5012009;28;20260;-64
2021/04/18 09:19:22;;;;;;;11.60;8.10;;;13.40;99.90;;;;;;5012182;28;20633;-63
2021/04/18 09:22:08;;;;;;;13.37;8.57;;;13.30;99.90;;;;;;5011698;28;20191;-64
2021/04/18 09:25:06;;;;;;;12.90;8.43;;;13.00;99.90;;;;;;5012077;28;20175;-64
2021/04/18 09:27:34;;;;;;;10.03;7.57;;;12.50;99.90;;;;;;4992495;28;20177;-64
2021/04/18 09:30:03;;;;;;;14.50;8.00;;;12.40;99.90;;;;;;4991939;28;20879;-64
2021/04/18 09:32:30;;;;;;;12.20;7.57;;;12.20;99.90;;;;;;5012031;28;20637;-64
2021/04/18 09:34:58;;;;;;;12.50;7.70;;;12.10;99.90;;;;;;5011898;28;20164;-64
2021/04/18 09:37:38;;;;;;;13.93;8.83;;;12.30;99.90;;;;;;5011563;28;20196;-64
2021/04/18 09:40:08;;;;;;;10.87;6.57;;;12.30;99.90;;;;;;5011446;28;20239;-64
2021/04/18 09:42:36;;;;;;;13.73;8.43;;;12.40;99.90;;;;;;5011570;28;20569;-64
2021/04/18 09:45:15;;;;;;;16.83;8.07;;;12.40;99.90;;;;;;5011582;28;20646;-64
2021/04/18 09:47:46;;;;;;;14.80;8.07;;;12.50;99.90;;;;;;4992729;28;20169;-63
2021/04/18 09:50:34;;;;;;;14.10;9.07;;;12.40;99.90;;;;;;5011450;28;20603;-64
2021/04/18 09:53:14;;;;;;;12.20;7.97;;;12.30;99.90;;;;;;4991684;28;20176;-64
2021/04/18 09:55:57;;;;;;;14.10;8.03;;;12.40;99.90;;;;;;4992220;28;20251;-64
2021/04/18 09:58:35;;;;;;;18.20;8.73;;;12.20;99.90;;;;;;4994013;28;20223;-64
2021/04/18 10:01:01;;;;;;;15.30;8.57;;;12.10;99.90;;;;;;5011178;28;20266;-65
2021/04/18 10:03:37;;;;;;;13.43;8.23;;;12.00;99.90;;;;;;5010459;28;20191;-64
2021/04/18 10:06:04;;;;;;;13.90;6.77;;;12.10;99.90;;;;;;5011557;28;20176;-64
2021/04/18 10:08:32;;;;;;;11.50;6.97;;;12.20;99.90;;;;;;5011252;28;20172;-64
2021/04/18 10:11:10;;;;;;;13.40;8.03;;;12.20;99.90;;;;;;5011144;28;20223;-64
2021/04/18 10:13:48;;;;;;;11.60;7.63;;;12.30;99.90;;;;;;5011034;28;20176;-64
2021/04/18 10:16:14;;;;;;;12.43;7.80;;;12.40;99.90;;;;;;5011322;28;20582;-64
2021/04/18 10:18:42;;;;;;;10.27;7.30;;;12.50;99.90;;;;;;5014741;28;20208;-64
2021/04/18 10:21:16;;;;;;;14.30;7.83;;;12.50;99.90;;;;;;5014625;28;20187;-64
2021/04/18 10:23:42;;;;;;;12.97;7.93;;;12.40;99.90;;;;;;5015002;28;20583;-64
2021/04/18 10:26:08;;;;;;;11.43;7.00;;;12.50;99.90;;;;;;5015132;28;20176;-64
2021/04/18 10:28:34;;;;;;;11.77;7.83;;;12.50;99.90;;;;;;5014940;28;20179;-64
2021/04/18 10:31:00;;;;;;;11.63;7.70;;;12.50;99.90;;;;;;5014685;28;20211;-64
2021/04/18 10:33:26;;;;;;;16.20;7.60;;;12.50;99.90;;;;;;5014863;28;20541;-64
2021/04/18 10:35:58;;;;;;;11.00;6.60;;;12.60;99.90;;;;;;5014819;28;20187;-64
2021/04/18 10:38:24;;;;;;;13.80;7.53;;;12.80;99.90;;;;;;5014822;28;20211;-65
2021/04/18 10:40:50;;;;;;;14.93;7.97;;;12.90;99.90;;;;;;5014136;28;20199;-65
2021/04/18 10:43:16;;;;;;;12.27;8.10;;;12.90;99.90;;;;;;5014191;28;20673;-65
2021/04/18 10:45:42;;;;;;;13.53;7.27;;;12.70;99.90;;;;;;5015039;28;20168;-64
2021/04/18 10:48:08;;;;;;;14.30;7.67;;;12.60;99.90;;;;;;5014582;28;20180;-64
2021/04/18 10:50:34;;;;;;;9.93;8.03;;;12.40;99.90;;;;;;5014471;28;20188;-65
2021/04/18 10:52:59;;;;;;;12.40;8.40;;;12.40;99.90;;;;;;5014342;28;20180;-64
2021/04/18 10:55:26;;;;;;;11.90;8.50;;;12.30;99.90;;;;;;5014607;28;20583;-64
2021/04/18 10:57:51;;;;;;;17.93;8.43;;;12.40;99.90;;;;;;5014339;28;20203;-64
2021/04/18 11:00:18;;;;;;;13.83;7.87;;;12.60;99.90;;;;;;5013988;28;20200;-64
2021/04/18 11:02:43;;;;;;;10.90;7.17;;;13.00;99.90;;;;;;5014444;28;20183;-64
2021/04/18 11:05:10;;;;;;;12.13;7.43;;;13.20;99.90;;;;;;5014349;28;20176;-64
2021/04/18 11:07:36;;;;;;;14.10;8.13;;;13.40;99.90;;;;;;5014250;28;20176;-65
2021/04/18 11:10:03;;;;;;;15.50;8.03;;;13.80;99.90;;;;;;5013624;28;20257;-64
2021/04/18 11:12:30;;;;;;;12.63;7.40;;;14.00;99.90;;;;;;5013773;28;20192;-65
2021/04/18 11:14:56;;;;;;;13.40;8.20;;;14.20;99.90;;;;;;5014213;28;20657;-64
2021/04/18 11:17:21;;;;;;;13.67;7.93;;;14.40;99.90;;;;;;5014149;28;20215;-64
2021/04/18 11:19:47;;;;;;;12.40;7.57;;;14.70;99.90;;;;;;5014247;28;20612;-64
2021/04/18 11:22:13;;;;;;;14.13;7.73;;;14.70;99.90;;;;;;5014283;28;20222;-65
2021/04/18 11:24:38;;;;;;;13.13;8.10;;;14.70;99.90;;;;;;5014450;28;20672;-65
2021/04/18 11:27:04;;;;;;;10.97;7.07;;;14.80;99.90;;;;;;5013928;28;20176;-63
2021/04/18 11:29:30;;;;;;;11.17;7.30;;;15.00;99.90;;;;;;5013993;28;20207;-64
2021/04/18 11:31:56;;;;;;;14.60;7.30;;;14.90;99.90;;;;;;5014036;28;20180;-64
2021/04/18 11:34:22;;;;;;;12.00;7.93;;;14.70;99.90;;;;;;5014502;28;20208;-64
2021/04/18 11:36:47;;;;;;;9.83;7.70;;;14.70;99.90;;;;;;5014001;28;20212;-65
2021/04/18 11:39:13;;;;;;;11.90;7.90;;;14.80;99.90;;;;;;5014067;28;20215;-65
2021/04/18 11:41:40;;;;;;;11.00;7.73;;;14.60;99.90;;;;;;5013938;28;20211;-64
2021/04/18 11:44:07;;;;;;;13.73;7.33;;;14.50;99.90;;;;;;5013851;28;20244;-64
2021/04/18 11:46:34;;;;;;;11.17;7.53;;;14.60;99.90;;;;;;5013541;28;20179;-65
2021/04/18 11:49:00;;;;;;;8.50;6.67;;;14.90;99.90;;;;;;5013856;28;20184;-65
2021/04/18 11:51:27;;;;;;;12.07;7.60;;;15.00;99.90;;;;;;5013247;28;20548;-64
2021/04/18 11:53:52;;;;;;;11.40;7.57;;;15.00;99.90;;;;;;5013529;28;20226;-66
2021/04/18 11:56:19;;;;;;;9.87;6.90;;;15.10;99.90;;;;;;5013526;28;20658;-65
2021/04/18 11:58:44;;;;;;;10.23;7.13;;;15.40;99.90;;;;;;4995983;28;20207;-64
2021/04/18 12:01:10;;;;;;;11.70;7.00;;;15.50;99.90;;;;;;5013155;28;20206;-65
2021/04/18 12:03:36;;;;;;;13.53;7.67;;;15.60;99.90;;;;;;5013529;28;20172;-64
2021/04/18 12:06:01;;;;;;;11.83;6.77;;;15.60;99.90;;;;;;5013715;28;20606;-65
2021/04/18 12:08:27;;;;;;;10.93;7.10;;;15.90;99.90;;;;;;5013488;28;20226;-64
2021/04/18 12:10:52;;;;;;;11.67;7.13;;;16.20;99.90;;;;;;5013480;28;20192;-64
2021/04/18 12:13:18;;;;;;;9.73;6.67;;;16.50;99.90;;;;;;5013220;28;20172;-65
2021/04/18 12:15:45;;;;;;;10.07;6.47;;;16.60;99.90;;;;;;5013390;28;20176;-64
2021/04/18 12:18:11;;;;;;;10.57;6.70;;;16.30;99.90;;;;;;5013202;28;20605;-65
2021/04/18 12:20:37;;;;;;;10.57;6.50;;;16.30;99.90;;;;;;5013049;28;20258;-64
2021/04/18 12:23:03;;;;;;;9.00;7.00;;;16.30;99.90;;;;;;5013377;28;20179;-65
2021/04/18 12:25:29;;;;;;;11.17;7.10;;;15.90;99.90;;;;;;5013048;28;20688;-67
2021/04/18 12:27:54;;;;;;;10.93;7.03;;;15.50;99.90;;;;;;5013400;28;20226;-67
2021/04/18 12:30:20;;;;;;;12.17;7.07;;;15.30;99.90;;;;;;5012566;28;20231;-65
2021/04/18 12:32:47;;;;;;;9.37;6.47;;;15.40;99.90;;;;;;5012703;28;20693;-65
2021/04/18 12:35:13;;;;;;;12.57;7.10;;;15.40;99.90;;;;;;5012821;28;20180;-64
2021/04/18 12:37:39;;;;;;;11.07;6.80;;;15.30;99.90;;;;;;5012550;28;20263;-64
2021/04/18 12:40:06;;;;;;;12.37;7.43;;;15.50;99.90;;;;;;5011805;28;20330;-65
2021/04/18 12:42:32;;;;;;;9.83;6.20;;;15.60;99.90;;;;;;5012458;28;20193;-64
2021/04/18 12:44:58;;;;;;;9.83;6.57;;;15.80;99.90;;;;;;5012452;28;20179;-64
2021/04/18 12:47:23;;;;;;;13.93;7.40;;;16.00;99.90;;;;;;5011995;28;20179;-64